Time;durP1;ratioP1;P1;durP2;ratioP2;P2;SDS_P1;SDS_P2;PMS_P1;PMS_P2;Temp;Humidity;BMP_temperature;BMP_pressure;BME280_temperature;BME280_humidity;BME280_pressure;Samples;Min_cycle;Max_cycle;Signal;HPM_P1;HPM_P2
2022/01/20 00:00:18;;;;;;;12.40;6.30;;;3.80;99.70;;;;;;5032465;28;20448;-67
2022/01/20 00:02:46;;;;;;;10.97;5.30;;;3.80;99.70;;;;;;5031982;28;20448;-68
2022/01/20 00:05:29;;;;;;;10.73;6.03;;;3.70;99.70;;;;;;5032271;28;20982;-67
2022/01/20 00:08:18;;;;;;;14.40;6.23;;;3.90;99.70;;;;;;5031656;28;20561;-67
2022/01/20 00:27:16;;;;;;;10.90;5.27;;;3.90;99.70;;;;;;5031839;28;20484;-67
2022/01/20 00:32:39;;;;;;;12.00;5.57;;;3.80;99.70;;;;;;5013902;28;20514;-67
2022/01/20 00:35:17;;;;;;;11.60;5.27;;;3.80;99.70;;;;;;5031799;28;20459;-67
2022/01/20 00:37:43;;;;;;;10.90;5.10;;;3.80;99.70;;;;;;5031503;28;20569;-67
2022/01/20 00:40:11;;;;;;;14.23;5.70;;;4.00;99.70;;;;;;5031484;28;20468;-67
2022/01/20 00:42:38;;;;;;;12.87;5.43;;;3.80;99.70;;;;;;5031707;28;20443;-67
2022/01/20 00:45:06;;;;;;;12.87;5.90;;;3.70;99.70;;;;;;5031758;28;20440;-67
2022/01/20 00:47:34;;;;;;;13.00;6.20;;;3.90;99.70;;;;;;5031154;28;20485;-67
2022/01/20 00:50:01;;;;;;;10.13;5.23;;;3.70;99.70;;;;;;5031250;28;20547;-67
2022/01/20 00:52:27;;;;;;;11.23;5.73;;;3.70;99.70;;;;;;5031529;28;20467;-67
2022/01/20 00:54:54;;;;;;;11.53;5.30;;;3.70;99.70;;;;;;5031503;28;20498;-67
2022/01/20 00:57:22;;;;;;;11.93;5.70;;;3.80;99.70;;;;;;5031201;28;20437;-67
2022/01/20 00:59:49;;;;;;;11.80;5.83;;;3.70;99.70;;;;;;5030538;28;20449;-67
2022/01/20 01:02:16;;;;;;;14.83;6.73;;;3.80;99.70;;;;;;5031147;28;20448;-67
2022/01/20 01:04:45;;;;;;;13.73;6.77;;;3.70;99.70;;;;;;5031376;28;20456;-67
2022/01/20 01:07:33;;;;;;;11.73;5.90;;;3.70;99.70;;;;;;5031226;28;20459;-68
2022/01/20 01:10:00;;;;;;;11.57;5.33;;;3.60;99.70;;;;;;5031056;28;20449;-67
2022/01/20 01:12:35;;;;;;;11.20;5.57;;;3.60;99.70;;;;;;5030945;28;20458;-67
2022/01/20 01:15:06;;;;;;;14.90;6.47;;;3.60;99.70;;;;;;5031437;28;20547;-67
2022/01/20 01:20:21;;;;;;;14.87;6.33;;;3.50;99.70;;;;;;5031506;28;20419;-67
2022/01/20 01:22:48;;;;;;;13.37;6.10;;;3.60;99.70;;;;;;5031159;28;20475;-67
2022/01/20 01:25:15;;;;;;;13.43;6.60;;;3.40;99.70;;;;;;5031189;28;20456;-67
2022/01/20 01:27:44;;;;;;;12.20;6.03;;;3.50;99.70;;;;;;5030643;28;20496;-68
2022/01/20 01:32:57;;;;;;;12.63;5.60;;;3.60;99.70;;;;;;5027814;28;20439;-67
2022/01/20 01:35:27;;;;;;;17.83;6.47;;;3.30;99.70;;;;;;5035194;28;20440;-67
2022/01/20 01:40:41;;;;;;;14.30;6.07;;;3.10;99.70;;;;;;5035192;28;20502;-67
2022/01/20 01:43:17;;;;;;;13.73;5.90;;;2.90;99.70;;;;;;5034752;28;20948;-67
2022/01/20 01:45:43;;;;;;;12.30;5.90;;;3.10;99.70;;;;;;5034956;28;20490;-67
2022/01/20 01:48:10;;;;;;;11.70;6.20;;;3.20;99.70;;;;;;5034110;28;20538;-67
2022/01/20 01:50:39;;;;;;;12.77;5.93;;;3.10;99.70;;;;;;5034969;28;20452;-67
2022/01/20 01:53:07;;;;;;;12.83;6.17;;;3.30;99.70;;;;;;5034380;28;20440;-67
2022/01/20 01:55:36;;;;;;;15.40;6.23;;;3.10;99.70;;;;;;5034937;28;20993;-67
2022/01/20 01:58:03;;;;;;;12.63;6.10;;;2.90;99.70;;;;;;5033746;28;20480;-67
2022/01/20 02:00:31;;;;;;;12.13;5.67;;;2.80;99.70;;;;;;5034677;28;20452;-67
2022/01/20 02:02:58;;;;;;;14.23;6.60;;;2.80;99.70;;;;;;5034589;28;20538;-67
2022/01/20 02:05:25;;;;;;;9.77;5.07;;;2.90;99.70;;;;;;5034632;28;20449;-67
2022/01/20 02:18:52;;;;;;;12.10;5.63;;;3.30;99.70;;;;;;5014260;28;20888;-67
2022/01/20 02:21:20;;;;;;;10.63;5.40;;;3.20;99.70;;;;;;5014629;28;20438;-67
2022/01/20 02:23:47;;;;;;;12.80;5.87;;;3.30;99.70;;;;;;5014412;28;20945;-67
2022/01/20 02:26:14;;;;;;;12.00;6.00;;;3.50;99.70;;;;;;5031680;28;20539;-67
2022/01/20 02:28:41;;;;;;;9.53;5.10;;;3.40;99.70;;;;;;5032853;28;20484;-67
2022/01/20 02:31:09;;;;;;;8.80;4.70;;;3.50;99.70;;;;;;5034154;28;20464;-67
2022/01/20 02:33:36;;;;;;;9.00;4.90;;;3.40;99.70;;;;;;5033960;28;20449;-67
2022/01/20 02:36:07;;;;;;;10.80;5.60;;;3.30;99.70;;;;;;5034094;28;20448;-67
2022/01/20 02:38:39;;;;;;;10.50;5.20;;;3.40;99.70;;;;;;5033317;28;20876;-67
2022/01/20 02:46:37;;;;;;;12.93;5.30;;;3.10;99.70;;;;;;5033927;28;20470;-67
2022/01/20 02:49:04;;;;;;;9.97;5.33;;;3.20;99.70;;;;;;5033179;28;20485;-67
2022/01/20 02:51:31;;;;;;;11.13;5.47;;;3.20;99.70;;;;;;5033883;28;20479;-67
2022/01/20 02:53:59;;;;;;;9.33;5.10;;;3.20;99.70;;;;;;5033641;28;20448;-67
2022/01/20 02:56:26;;;;;;;11.90;5.60;;;3.40;99.70;;;;;;5033387;28;20449;-67
2022/01/20 02:58:52;;;;;;;10.90;5.00;;;3.20;99.70;;;;;;5033013;28;20491;-68
2022/01/20 03:01:19;;;;;;;10.17;4.80;;;3.20;99.70;;;;;;5033656;28;20452;-67
2022/01/20 03:03:46;;;;;;;13.33;5.90;;;3.30;99.70;;;;;;5033535;28;20448;-67
2022/01/20 03:06:13;;;;;;;11.37;6.00;;;3.10;99.70;;;;;;5033508;28;20445;-67
2022/01/20 03:08:40;;;;;;;10.80;5.40;;;3.00;99.70;;;;;;5032965;28;20546;-67
2022/01/20 03:11:08;;;;;;;10.67;5.03;;;3.20;99.70;;;;;;5033203;28;20449;-67
2022/01/20 03:13:35;;;;;;;9.97;4.90;;;3.10;99.70;;;;;;5033360;28;20531;-67
2022/01/20 03:16:02;;;;;;;10.90;4.17;;;3.00;99.70;;;;;;5033074;28;20984;-68
2022/01/20 03:18:28;;;;;;;8.40;4.00;;;3.10;99.70;;;;;;5032698;28;20460;-67
2022/01/20 03:20:55;;;;;;;5.37;3.20;;;3.30;99.70;;;;;;5033334;28;20452;-67
2022/01/20 03:23:22;;;;;;;6.53;3.40;;;3.40;99.70;;;;;;5033085;28;20449;-68
2022/01/20 03:25:49;;;;;;;8.60;3.50;;;3.40;99.70;;;;;;5032811;28;20457;-67
2022/01/20 03:28:17;;;;;;;6.67;3.40;;;3.40;99.70;;;;;;5031626;28;20539;-67
2022/01/20 03:30:43;;;;;;;5.43;3.20;;;3.40;99.70;;;;;;5032975;28;20444;-67
2022/01/20 03:33:10;;;;;;;4.73;2.93;;;3.50;99.70;;;;;;5032772;28;21057;-67
2022/01/20 03:35:37;;;;;;;5.33;2.83;;;3.60;99.70;;;;;;5032937;28;20448;-68
2022/01/20 03:38:04;;;;;;;9.03;3.23;;;3.60;99.70;;;;;;5032326;28;20988;-67
2022/01/20 03:40:30;;;;;;;4.93;3.00;;;3.80;99.70;;;;;;5032641;28;20918;-67
2022/01/20 03:42:57;;;;;;;4.03;2.47;;;3.70;99.70;;;;;;5032853;28;20451;-67
2022/01/20 03:45:27;;;;;;;6.37;2.73;;;3.60;99.70;;;;;;5032732;28;20864;-67
2022/01/20 03:47:58;;;;;;;5.00;2.77;;;3.70;99.70;;;;;;5032228;28;20487;-66
2022/01/20 03:53:09;;;;;;;5.37;2.67;;;3.60;99.70;;;;;;5032707;28;20451;-67
2022/01/20 03:55:36;;;;;;;5.67;2.80;;;3.50;99.70;;;;;;5032300;28;20444;-67
2022/01/20 03:58:03;;;;;;;4.67;2.60;;;3.70;99.70;;;;;;5031914;28;20480;-67
2022/01/20 04:00:31;;;;;;;6.67;2.70;;;3.80;99.70;;;;;;5032413;28;20448;-67
2022/01/20 04:02:57;;;;;;;4.90;2.50;;;3.70;99.70;;;;;;5032477;28;20441;-67
2022/01/20 04:05:24;;;;;;;5.60;2.73;;;3.70;99.70;;;;;;5032346;28;20445;-67
2022/01/20 04:07:51;;;;;;;4.93;2.23;;;3.60;99.70;;;;;;5031444;28;20988;-67
2022/01/20 04:10:18;;;;;;;6.07;2.20;;;3.70;99.70;;;;;;5032276;28;20452;-67
2022/01/20 04:12:45;;;;;;;5.10;2.63;;;3.80;99.70;;;;;;5032203;28;20447;-67
2022/01/20 04:15:12;;;;;;;4.27;2.30;;;3.80;99.70;;;;;;5032058;28;20828;-67
2022/01/20 04:17:43;;;;;;;6.33;2.67;;;3.70;99.70;;;;;;5031889;28;21041;-67
2022/01/20 04:20:10;;;;;;;4.97;2.20;;;3.70;99.70;;;;;;5031975;28;20440;-67
2022/01/20 04:22:37;;;;;;;4.17;2.20;;;3.70;99.70;;;;;;5031786;28;20448;-67
2022/01/20 04:25:05;;;;;;;4.17;2.20;;;3.70;99.70;;;;;;5031886;28;20967;-67
2022/01/20 04:27:32;;;;;;;4.67;2.40;;;3.70;99.70;;;;;;5031861;28;20444;-67
2022/01/20 04:29:58;;;;;;;5.07;2.50;;;3.70;99.70;;;;;;5030783;28;20853;-67
2022/01/20 04:32:25;;;;;;;6.23;3.00;;;3.50;99.70;;;;;;5031955;28;20825;-67
2022/01/20 04:34:54;;;;;;;5.97;2.77;;;3.50;99.70;;;;;;5031832;28;20968;-67
2022/01/20 04:37:21;;;;;;;5.10;2.67;;;3.70;99.70;;;;;;5031584;28;20464;-67
2022/01/20 04:39:50;;;;;;;5.37;3.10;;;3.70;99.70;;;;;;5031291;28;20949;-67
2022/01/20 04:42:18;;;;;;;6.37;3.30;;;3.70;99.70;;;;;;5031752;28;20803;-67
2022/01/20 04:44:50;;;;;;;7.40;3.63;;;3.70;99.70;;;;;;5031618;28;20983;-67
2022/01/20 04:47:30;;;;;;;7.40;3.60;;;3.70;99.70;;;;;;5031702;28;20453;-67
2022/01/20 04:58:11;;;;;;;8.50;4.70;;;3.60;99.70;;;;;;5031015;28;20510;-67
2022/01/20 05:00:38;;;;;;;6.57;3.83;;;3.60;99.70;;;;;;5031547;28;20535;-67
2022/01/20 05:03:05;;;;;;;4.40;2.40;;;3.60;99.70;;;;;;5031431;28;20445;-67
2022/01/20 05:05:34;;;;;;;4.03;2.27;;;3.70;99.70;;;;;;5031017;28;20444;-67
2022/01/20 05:08:01;;;;;;;4.10;2.27;;;3.70;99.70;;;;;;5030451;28;21007;-66
2022/01/20 05:10:30;;;;;;;3.50;2.00;;;3.80;99.70;;;;;;5031254;28;21361;-67
2022/01/20 05:13:11;;;;;;;5.20;2.80;;;3.80;99.70;;;;;;5031131;28;20452;-67
2022/01/20 05:15:38;;;;;;;6.17;3.60;;;3.80;99.70;;;;;;5031361;28;20817;-67
2022/01/20 05:18:04;;;;;;;6.40;3.33;;;3.80;99.70;;;;;;5030815;28;20464;-67
2022/01/20 05:20:32;;;;;;;5.73;2.90;;;3.70;99.70;;;;;;5031027;28;20455;-66
2022/01/20 05:22:59;;;;;;;5.10;2.60;;;3.60;99.70;;;;;;5031256;28;20455;-66
2022/01/20 05:25:26;;;;;;;3.37;2.10;;;3.70;99.70;;;;;;5031215;28;20445;-67
2022/01/20 05:27:52;;;;;;;4.50;2.50;;;3.70;99.70;;;;;;5030805;28;20526;-67
2022/01/20 05:30:19;;;;;;;4.50;2.27;;;3.80;99.70;;;;;;5030339;28;20483;-67
2022/01/20 05:32:46;;;;;;;4.93;2.33;;;3.80;99.70;;;;;;5031259;28;20874;-67
2022/01/20 05:35:12;;;;;;;5.60;2.60;;;3.70;99.70;;;;;;5030965;28;20459;-67
2022/01/20 05:37:41;;;;;;;6.30;2.40;;;3.60;99.70;;;;;;5031099;28;20475;-67
2022/01/20 05:40:08;;;;;;;4.30;2.40;;;3.60;99.70;;;;;;5031034;28;20445;-67
2022/01/20 05:42:37;;;;;;;8.30;2.83;;;3.70;99.70;;;;;;5031055;28;20880;-67
2022/01/20 05:45:06;;;;;;;4.07;2.33;;;3.70;99.70;;;;;;5026893;28;20444;-67
2022/01/20 05:47:35;;;;;;;4.40;2.43;;;3.70;99.70;;;;;;5020950;28;20485;-67
2022/01/20 05:50:02;;;;;;;6.13;3.37;;;3.60;99.70;;;;;;5026737;28;20489;-67
2022/01/20 05:52:28;;;;;;;4.60;2.47;;;3.70;99.70;;;;;;5026496;28;20850;-66
2022/01/20 05:54:56;;;;;;;7.87;3.10;;;3.80;99.70;;;;;;5026944;28;20508;-67
2022/01/20 05:57:23;;;;;;;4.50;2.67;;;3.80;99.70;;;;;;5024842;28;20483;-67
2022/01/20 05:59:50;;;;;;;5.63;2.60;;;3.80;99.70;;;;;;5026580;28;20648;-66
2022/01/20 06:02:32;;;;;;;5.37;2.90;;;3.80;99.70;;;;;;5025793;28;20844;-67
2022/01/20 06:04:59;;;;;;;5.30;2.73;;;3.80;99.70;;;;;;5027379;28;20970;-67
2022/01/20 06:07:26;;;;;;;6.73;3.03;;;3.70;99.70;;;;;;5022856;28;20461;-67
2022/01/20 06:09:52;;;;;;;5.57;3.37;;;3.70;99.70;;;;;;5029037;28;20508;-67
2022/01/20 06:12:20;;;;;;;6.87;2.77;;;3.80;99.70;;;;;;5028707;28;20448;-68
2022/01/20 06:14:47;;;;;;;4.83;2.40;;;3.80;99.70;;;;;;5028430;28;20448;-67
2022/01/20 06:17:14;;;;;;;6.27;2.67;;;3.80;99.70;;;;;;5031120;28;20952;-67
2022/01/20 06:19:42;;;;;;;6.27;3.40;;;3.70;99.70;;;;;;5013154;28;20442;-68
2022/01/20 06:22:13;;;;;;;7.80;3.50;;;3.70;99.70;;;;;;5012535;28;20845;-67
2022/01/20 06:24:42;;;;;;;8.33;3.00;;;3.60;99.70;;;;;;5012763;28;20453;-67
2022/01/20 06:27:09;;;;;;;6.60;3.20;;;3.50;99.70;;;;;;5013615;28;20445;-67
2022/01/20 06:29:37;;;;;;;7.43;3.20;;;3.50;99.70;;;;;;5012616;28;20489;-67
2022/01/20 06:32:05;;;;;;;24.23;8.37;;;3.50;99.70;;;;;;5014219;28;20441;-67
2022/01/20 06:34:31;;;;;;;15.80;6.00;;;3.50;99.70;;;;;;5014219;28;20441;-68
2022/01/20 06:36:58;;;;;;;8.23;3.33;;;3.40;99.70;;;;;;5013708;28;20449;-67
2022/01/20 06:39:25;;;;;;;9.80;3.47;;;3.30;99.70;;;;;;5013592;28;20465;-67
2022/01/20 06:41:52;;;;;;;7.10;3.33;;;3.40;99.70;;;;;;5012988;28;20933;-67
2022/01/20 06:44:21;;;;;;;6.80;3.03;;;3.40;99.70;;;;;;5012785;28;20511;-67
2022/01/20 06:46:49;;;;;;;6.90;3.23;;;3.30;99.70;;;;;;5013879;28;20941;-67
2022/01/20 06:49:17;;;;;;;8.13;3.53;;;3.30;99.70;;;;;;5013111;28;20940;-68
2022/01/20 06:51:44;;;;;;;9.00;3.60;;;3.40;99.70;;;;;;5014046;28;20623;-67
2022/01/20 06:54:11;;;;;;;8.80;3.63;;;3.40;99.70;;;;;;5013833;28;20457;-67
2022/01/20 06:56:37;;;;;;;7.20;3.57;;;3.50;99.70;;;;;;5013751;28;20865;-67
2022/01/20 06:59:04;;;;;;;7.10;3.43;;;3.40;99.70;;;;;;5013317;28;20504;-67
2022/01/20 07:01:31;;;;;;;5.90;3.37;;;3.50;99.70;;;;;;5013864;28;20442;-67
2022/01/20 07:03:59;;;;;;;7.57;3.10;;;3.50;99.70;;;;;;5013721;28;20445;-67
2022/01/20 07:06:26;;;;;;;6.03;2.90;;;3.60;99.70;;;;;;5013593;28;20960;-67
2022/01/20 07:08:53;;;;;;;5.20;2.50;;;3.60;99.70;;;;;;5013088;28;20469;-67
2022/01/20 07:11:20;;;;;;;6.90;3.17;;;3.70;99.70;;;;;;5013607;28;20456;-67
2022/01/20 07:13:46;;;;;;;6.97;2.77;;;3.60;99.70;;;;;;5013455;28;20445;-67
2022/01/20 07:16:13;;;;;;;9.20;3.00;;;3.70;99.70;;;;;;5013566;28;20805;-67
2022/01/20 07:18:40;;;;;;;6.40;2.80;;;3.70;99.70;;;;;;5012977;28;20549;-67
2022/01/20 07:21:08;;;;;;;4.90;2.47;;;3.70;99.70;;;;;;5013438;28;20834;-67
2022/01/20 07:23:34;;;;;;;4.70;2.30;;;3.70;99.70;;;;;;5013304;28;20450;-67
2022/01/20 07:26:01;;;;;;;5.23;2.40;;;3.60;99.70;;;;;;5013441;28;20446;-67
2022/01/20 07:28:28;;;;;;;5.70;2.83;;;3.50;99.70;;;;;;5012111;28;20901;-67
2022/01/20 07:30:54;;;;;;;4.67;2.30;;;3.40;99.70;;;;;;5013324;28;20548;-68
2022/01/20 07:33:21;;;;;;;4.57;2.53;;;3.30;99.70;;;;;;5013091;28;20814;-67
2022/01/20 07:35:48;;;;;;;5.40;2.40;;;3.50;99.70;;;;;;5013313;28;20446;-67
2022/01/20 07:38:16;;;;;;;5.90;2.67;;;3.40;99.70;;;;;;5012541;28;20552;-67
2022/01/20 07:40:43;;;;;;;5.60;2.53;;;3.30;99.70;;;;;;5013095;28;20457;-67
2022/01/20 07:43:09;;;;;;;7.70;4.37;;;3.30;99.70;;;;;;5012919;28;20857;-67
2022/01/20 07:45:36;;;;;;;5.27;2.87;;;3.20;99.70;;;;;;5012903;28;20441;-67
2022/01/20 07:48:03;;;;;;;6.13;2.80;;;3.30;99.70;;;;;;5011707;28;20716;-67
2022/01/20 07:50:30;;;;;;;6.60;3.00;;;3.40;99.70;;;;;;5012900;28;20481;-67
2022/01/20 07:52:57;;;;;;;6.50;3.23;;;3.30;99.70;;;;;;5012794;28;20445;-67
2022/01/20 07:55:25;;;;;;;4.97;2.90;;;3.30;99.70;;;;;;5012792;28;20449;-67
2022/01/20 07:57:52;;;;;;;5.87;2.90;;;3.20;99.70;;;;;;5012082;28;20480;-67
2022/01/20 08:00:19;;;;;;;7.57;3.30;;;3.20;99.70;;;;;;5012643;28;20448;-67
2022/01/20 08:02:46;;;;;;;6.67;3.30;;;3.40;99.70;;;;;;5012678;28;20830;-67
2022/01/20 08:05:13;;;;;;;8.43;3.80;;;3.40;99.70;;;;;;5012527;28;20445;-67
2022/01/20 08:07:40;;;;;;;5.63;2.93;;;3.50;99.70;;;;;;5011333;28;20977;-66
2022/01/20 08:10:11;;;;;;;6.67;3.30;;;3.60;99.70;;;;;;5011572;28;20548;-67
2022/01/20 08:12:39;;;;;;;5.93;3.30;;;3.70;99.70;;;;;;5012606;28;20450;-66
2022/01/20 08:15:09;;;;;;;6.77;3.30;;;3.80;99.70;;;;;;5012399;28;20454;-67
2022/01/20 08:17:36;;;;;;;8.50;3.73;;;3.90;99.70;;;;;;5012385;28;20477;-67
2022/01/20 08:20:03;;;;;;;7.43;3.17;;;3.90;99.70;;;;;;5012152;28;20444;-67
2022/01/20 08:22:33;;;;;;;12.10;4.00;;;3.90;99.70;;;;;;5021968;28;20476;-67
2022/01/20 08:25:00;;;;;;;7.53;3.30;;;3.80;99.70;;;;;;5013311;28;20957;-67
2022/01/20 08:27:27;;;;;;;9.50;3.00;;;4.00;99.70;;;;;;5013660;28;20445;-67
2022/01/20 08:29:55;;;;;;;11.87;4.30;;;3.90;99.70;;;;;;5012900;28;20480;-67
2022/01/20 08:32:22;;;;;;;10.83;4.40;;;4.00;99.70;;;;;;5013302;28;20445;-67
2022/01/20 08:34:48;;;;;;;8.37;3.50;;;4.00;99.70;;;;;;5014141;28;20454;-67
2022/01/20 08:37:15;;;;;;;9.20;3.70;;;4.00;99.70;;;;;;5013100;28;20450;-67
2022/01/20 08:39:43;;;;;;;7.40;3.53;;;4.10;99.70;;;;;;5013167;28;20445;-67
2022/01/20 08:42:10;;;;;;;12.37;4.17;;;4.10;99.70;;;;;;5013246;28;20506;-67
2022/01/20 08:44:38;;;;;;;12.40;4.30;;;4.10;99.70;;;;;;5014033;28;20449;-67
2022/01/20 08:47:14;;;;;;;11.60;4.40;;;4.00;99.70;;;;;;5012998;28;20449;-67
2022/01/20 08:49:40;;;;;;;13.50;4.73;;;4.10;99.70;;;;;;5013857;28;20548;-67
2022/01/20 08:52:07;;;;;;;16.37;5.77;;;4.10;99.70;;;;;;5012134;28;20476;-67
2022/01/20 08:54:34;;;;;;;10.47;3.80;;;4.10;99.70;;;;;;5013930;28;20450;-67
2022/01/20 08:57:00;;;;;;;11.80;4.20;;;4.10;99.70;;;;;;5012949;28;20870;-67
2022/01/20 08:59:29;;;;;;;9.60;4.00;;;4.20;99.70;;;;;;5015798;28;20475;-67
2022/01/20 09:01:56;;;;;;;7.80;3.90;;;4.30;99.70;;;;;;5029846;28;20453;-67
2022/01/20 09:04:24;;;;;;;11.73;3.87;;;4.20;99.70;;;;;;5027932;28;20453;-67
2022/01/20 09:06:50;;;;;;;7.67;3.53;;;4.10;99.70;;;;;;5029719;28;20453;-67
2022/01/20 09:09:19;;;;;;;8.63;3.77;;;4.00;99.70;;;;;;5027571;28;20475;-67
2022/01/20 09:12:02;;;;;;;10.87;4.37;;;4.00;99.70;;;;;;5029650;28;21053;-67
2022/01/20 09:17:21;;;;;;;8.93;4.13;;;4.10;99.70;;;;;;5005006;28;21007;-67
2022/01/20 09:19:50;;;;;;;10.13;3.90;;;4.10;99.70;;;;;;5028188;28;20436;-67
2022/01/20 09:22:16;;;;;;;14.03;4.20;;;4.30;99.70;;;;;;5018669;28;20462;-67
2022/01/20 09:24:45;;;;;;;11.30;4.20;;;4.20;99.70;;;;;;5027918;28;20874;-67
2022/01/20 09:27:12;;;;;;;11.57;3.80;;;4.30;99.70;;;;;;5029455;28;20645;-67
2022/01/20 09:29:40;;;;;;;14.27;3.80;;;4.30;99.70;;;;;;5027072;28;20444;-67
2022/01/20 09:32:10;;;;;;;9.90;3.90;;;4.40;99.70;;;;;;5029511;28;20455;-67
2022/01/20 09:34:37;;;;;;;10.40;3.70;;;4.40;99.70;;;;;;5027582;28;20480;-67
2022/01/20 09:37:05;;;;;;;11.27;4.20;;;4.40;99.70;;;;;;5029403;28;20452;-67
2022/01/20 09:39:32;;;;;;;15.70;4.33;;;4.50;99.70;;;;;;5027220;28;20477;-67
2022/01/20 09:41:59;;;;;;;11.17;4.40;;;4.60;99.70;;;;;;5029431;28;20453;-67
2022/01/20 09:44:27;;;;;;;8.03;3.87;;;4.50;99.70;;;;;;5027491;28;20452;-67
2022/01/20 09:46:54;;;;;;;10.10;4.13;;;4.50;99.70;;;;;;5029250;28;20444;-68
2022/01/20 09:49:20;;;;;;;9.40;3.57;;;4.50;99.70;;;;;;5027172;28;20475;-67
2022/01/20 09:51:47;;;;;;;9.63;3.50;;;4.50;99.70;;;;;;5032713;28;20854;-67
2022/01/20 09:54:15;;;;;;;11.43;4.50;;;4.60;99.70;;;;;;5031347;28;20510;-68
2022/01/20 09:56:44;;;;;;;9.33;3.80;;;4.60;99.70;;;;;;5032919;28;20955;-67
2022/01/20 09:59:12;;;;;;;11.63;3.80;;;4.70;99.70;;;;;;5029083;28;20929;-67
2022/01/20 10:01:41;;;;;;;13.80;5.10;;;4.80;99.70;;;;;;5016864;28;20441;-67
2022/01/20 10:04:19;;;;;;;7.87;3.67;;;4.70;99.70;;;;;;5015836;28;20870;-68
2022/01/20 10:06:53;;;;;;;8.37;3.83;;;4.80;99.70;;;;;;5015905;28;20464;-67
2022/01/20 10:09:29;;;;;;;9.43;3.70;;;4.70;99.70;;;;;;5016590;28;20469;-67
2022/01/20 10:11:56;;;;;;;12.17;3.80;;;4.70;99.70;;;;;;5016058;28;20489;-67
2022/01/20 10:14:23;;;;;;;10.20;3.77;;;4.80;99.70;;;;;;5017831;28;20445;-68
2022/01/20 10:16:49;;;;;;;11.93;4.33;;;4.80;99.70;;;;;;5015862;28;20504;-67
2022/01/20 10:19:24;;;;;;;12.63;5.03;;;4.80;99.70;;;;;;5015921;28;21055;-67
2022/01/20 10:21:50;;;;;;;11.47;4.10;;;4.90;99.70;;;;;;5015151;28;20475;-67
2022/01/20 10:24:17;;;;;;;9.53;4.07;;;4.80;99.70;;;;;;5016394;28;20454;-67
2022/01/20 10:26:50;;;;;;;16.57;4.67;;;4.80;99.70;;;;;;5015643;28;20826;-67
2022/01/20 10:29:17;;;;;;;15.33;4.30;;;4.60;99.70;;;;;;5015454;28;20470;-67
2022/01/20 10:31:46;;;;;;;14.57;4.40;;;4.60;99.70;;;;;;5015434;28;20889;-67
2022/01/20 10:34:22;;;;;;;9.43;4.20;;;4.70;99.70;;;;;;5014822;28;20456;-66
2022/01/20 10:36:53;;;;;;;14.37;4.63;;;4.60;99.70;;;;;;5015486;28;20456;-67
2022/01/20 10:39:28;;;;;;;12.57;3.83;;;4.60;99.70;;;;;;5016036;28;20527;-67
2022/01/20 10:42:00;;;;;;;17.63;4.10;;;4.70;99.70;;;;;;5015436;28;20524;-67
2022/01/20 10:44:27;;;;;;;12.17;3.80;;;4.70;99.70;;;;;;5016354;28;20453;-67
2022/01/20 10:46:58;;;;;;;11.10;4.27;;;4.70;99.70;;;;;;5015402;28;20891;-68
2022/01/20 10:49:30;;;;;;;11.07;4.07;;;4.70;99.70;;;;;;5015835;28;20996;-68
2022/01/20 10:52:03;;;;;;;7.70;4.20;;;4.80;99.70;;;;;;5015108;28;20496;-67
2022/01/20 10:54:42;;;;;;;9.40;4.20;;;5.00;99.70;;;;;;5017095;28;20456;-68
2022/01/20 10:57:13;;;;;;;8.67;3.77;;;4.90;99.70;;;;;;5015159;28;20449;-67
2022/01/20 10:59:51;;;;;;;7.27;3.70;;;5.00;99.70;;;;;;5026166;28;20531;-66
2022/01/20 11:02:20;;;;;;;8.17;3.70;;;4.90;99.70;;;;;;5014467;28;20449;-67
2022/01/20 11:04:48;;;;;;;10.20;3.77;;;4.80;99.70;;;;;;5015766;28;20449;-66
2022/01/20 11:07:15;;;;;;;9.50;3.67;;;4.80;99.70;;;;;;5014792;28;20449;-66
2022/01/20 11:09:44;;;;;;;11.73;4.07;;;5.00;99.70;;;;;;5015603;28;20452;-67
2022/01/20 11:12:14;;;;;;;10.53;4.70;;;5.10;99.70;;;;;;5014814;28;20635;-67
2022/01/20 11:14:43;;;;;;;12.00;5.40;;;5.10;99.70;;;;;;5015399;28;20522;-67
2022/01/20 11:17:17;;;;;;;10.97;4.27;;;5.20;99.70;;;;;;5014635;28;20438;-67
2022/01/20 11:19:45;;;;;;;9.00;3.83;;;5.20;99.70;;;;;;5015480;28;20834;-67
2022/01/20 11:22:13;;;;;;;9.03;4.40;;;5.10;99.70;;;;;;5013870;28;20507;-67
2022/01/20 11:24:43;;;;;;;9.70;4.20;;;4.90;99.70;;;;;;5015615;28;20486;-67
2022/01/20 11:27:13;;;;;;;9.43;4.40;;;5.00;99.70;;;;;;5014464;28;20937;-67
2022/01/20 11:29:45;;;;;;;13.23;3.73;;;5.00;99.70;;;;;;5014828;28;20484;-67
2022/01/20 11:32:20;;;;;;;7.43;3.57;;;4.90;99.70;;;;;;5014275;28;20489;-67
2022/01/20 11:34:58;;;;;;;12.63;4.17;;;4.90;99.70;;;;;;5015394;28;20941;-67
2022/01/20 11:37:26;;;;;;;8.73;3.67;;;4.90;99.70;;;;;;5013997;28;20456;-67
2022/01/20 11:39:53;;;;;;;9.73;4.17;;;4.80;99.70;;;;;;5029458;28;20523;-67
2022/01/20 11:42:24;;;;;;;9.93;3.83;;;4.60;99.70;;;;;;5031192;28;20452;-67
2022/01/20 11:44:51;;;;;;;9.10;4.53;;;4.70;99.70;;;;;;5029569;28;20455;-66
2022/01/20 11:47:18;;;;;;;9.40;3.90;;;4.70;99.70;;;;;;5030891;28;20831;-67
2022/01/20 11:49:46;;;;;;;9.73;3.67;;;4.70;99.70;;;;;;5028248;28;20975;-67
2022/01/20 11:52:23;;;;;;;10.13;3.50;;;4.60;99.70;;;;;;5030894;28;20496;-67
2022/01/20 11:54:50;;;;;;;9.97;3.90;;;4.70;99.70;;;;;;5029296;28;20539;-67
2022/01/20 11:57:22;;;;;;;12.30;4.30;;;4.80;99.70;;;;;;5030852;28;20456;-67
2022/01/20 11:59:53;;;;;;;11.97;4.03;;;4.90;99.70;;;;;;5028800;28;20514;-66
2022/01/20 12:02:27;;;;;;;11.67;4.00;;;4.90;99.70;;;;;;5030714;28;20444;-66
2022/01/20 12:04:53;;;;;;;11.53;3.80;;;4.80;99.70;;;;;;5014819;28;20453;-67
2022/01/20 12:07:26;;;;;;;10.20;4.40;;;4.80;99.70;;;;;;5013652;28;20461;-66
2022/01/20 12:09:52;;;;;;;8.60;3.80;;;4.80;99.70;;;;;;5014507;28;20473;-67
2022/01/20 12:12:24;;;;;;;8.80;3.40;;;4.90;99.70;;;;;;5013500;28;20491;-66
2022/01/20 12:14:52;;;;;;;12.53;4.10;;;4.90;99.70;;;;;;5013879;28;20445;-66
2022/01/20 12:17:19;;;;;;;9.43;3.57;;;4.90;99.70;;;;;;5013480;28;20452;-67
2022/01/20 12:19:53;;;;;;;5.90;3.33;;;5.10;99.70;;;;;;5014356;28;20449;-66
2022/01/20 12:22:20;;;;;;;7.43;3.17;;;5.20;99.70;;;;;;5012983;28;20518;-66
2022/01/20 12:24:52;;;;;;;16.77;3.20;;;5.30;99.70;;;;;;5014574;28;20524;-67
2022/01/20 12:27:20;;;;;;;13.30;3.37;;;5.20;99.70;;;;;;5013365;28;20446;-66
2022/01/20 12:29:46;;;;;;;4.97;2.50;;;5.10;99.70;;;;;;5013792;28;20449;-67
2022/01/20 12:32:16;;;;;;;7.93;3.10;;;5.00;99.70;;;;;;5013094;28;20477;-66
2022/01/20 12:34:44;;;;;;;7.73;3.20;;;5.00;99.70;;;;;;5014477;28;20955;-67
2022/01/20 12:37:11;;;;;;;6.03;2.13;;;5.00;99.70;;;;;;5013143;28;20446;-67
2022/01/20 12:39:40;;;;;;;4.53;2.00;;;4.60;99.70;;;;;;5013871;28;20469;-67
2022/01/20 12:42:09;;;;;;;7.93;2.60;;;3.90;99.70;;;;;;5013075;28;20442;-67
2022/01/20 12:44:48;;;;;;;8.30;3.53;;;3.60;99.70;;;;;;5014254;28;20805;-67
2022/01/20 12:47:17;;;;;;;9.73;3.67;;;3.40;99.70;;;;;;5012979;28;20449;-65
2022/01/20 12:49:43;;;;;;;7.97;3.43;;;3.20;99.70;;;;;;5013849;28;20536;-68
2022/01/20 12:52:11;;;;;;;10.10;6.20;;;3.20;99.70;;;;;;5012866;28;20477;-67
2022/01/20 12:54:39;;;;;;;7.40;3.10;;;3.00;99.70;;;;;;5013410;28;20944;-67
2022/01/20 12:57:07;;;;;;;12.43;3.67;;;2.90;99.70;;;;;;5013027;28;20463;-68
2022/01/20 12:59:36;;;;;;;13.00;5.77;;;3.00;99.70;;;;;;5025371;28;20903;-67
2022/01/20 13:02:06;;;;;;;19.60;7.93;;;2.70;99.70;;;;;;5029739;28;20908;-67
2022/01/20 13:04:36;;;;;;;9.60;4.20;;;2.60;99.70;;;;;;5028118;28;20446;-67
2022/01/20 13:07:04;;;;;;;8.10;3.63;;;2.70;99.70;;;;;;5029781;28;20476;-67
2022/01/20 13:09:38;;;;;;;14.30;6.13;;;2.70;99.70;;;;;;5027719;28;20512;-68
2022/01/20 13:12:06;;;;;;;19.60;9.90;;;2.60;99.70;;;;;;5029529;28;20810;-67
2022/01/20 13:14:35;;;;;;;7.57;3.70;;;2.50;99.70;;;;;;5027996;28;20809;-67
2022/01/20 13:17:03;;;;;;;9.07;4.33;;;2.60;99.70;;;;;;5029624;28;20526;-68
2022/01/20 13:19:36;;;;;;;8.60;3.00;;;2.40;99.70;;;;;;5027588;28;20472;-68
2022/01/20 13:22:05;;;;;;;11.43;4.40;;;2.60;99.70;;;;;;5028113;28;20449;-68
2022/01/20 13:24:33;;;;;;;18.60;7.47;;;2.90;99.70;;;;;;5027910;28;21004;-68
2022/01/20 13:27:01;;;;;;;9.70;5.20;;;2.80;99.70;;;;;;5033735;28;20927;-68
2022/01/20 13:29:40;;;;;;;11.00;5.60;;;2.70;99.70;;;;;;5031207;28;20506;-67
2022/01/20 13:32:07;;;;;;;13.20;5.73;;;2.60;99.70;;;;;;5033352;28;20518;-68
2022/01/20 13:34:36;;;;;;;17.20;4.60;;;2.70;99.70;;;;;;5031880;28;20450;-68
2022/01/20 13:37:03;;;;;;;12.30;3.03;;;2.70;99.70;;;;;;5033511;28;20479;-68
2022/01/20 13:39:35;;;;;;;10.47;3.60;;;2.80;99.70;;;;;;5031360;28;20471;-67
2022/01/20 13:42:24;;;;;;;10.73;4.87;;;2.90;99.70;;;;;;5033577;28;20460;-67
2022/01/20 13:45:14;;;;;;;7.80;3.60;;;3.00;99.70;;;;;;5028780;28;20532;-68
2022/01/20 13:47:52;;;;;;;6.97;3.40;;;2.80;99.70;;;;;;5030095;28;20815;-68
2022/01/20 13:50:22;;;;;;;6.93;3.10;;;2.70;99.70;;;;;;5032521;28;20452;-68
2022/01/20 13:52:48;;;;;;;9.73;3.73;;;2.80;99.70;;;;;;5028771;28;20492;-68
2022/01/20 13:55:21;;;;;;;11.20;3.50;;;2.90;99.70;;;;;;5031420;28;20452;-67
2022/01/20 13:57:47;;;;;;;9.43;3.27;;;2.90;99.70;;;;;;5029622;28;20476;-68